createdAt,value
2017-11-18T00:00:25.434Z,0.00
2017-11-18T00:01:25.441Z,0.00
2017-11-18T00:02:26.089Z,0.00
2017-11-18T00:03:26.058Z,0.00
2017-11-18T00:04:25.410Z,0.00
2017-11-18T00:05:25.458Z,0.00
2017-11-18T00:06:25.400Z,0.00
2017-11-18T00:07:25.392Z,0.00
2017-11-18T00:08:25.383Z,0.00
2017-11-18T00:09:25.403Z,0.00
2017-11-18T00:10:25.371Z,0.00
2017-11-18T00:11:25.390Z,0.00
2017-11-18T00:12:25.669Z,0.00
2017-11-18T00:13:25.350Z,0.00
2017-11-18T00:14:25.343Z,0.00
2017-11-18T00:15:25.772Z,0.00
2017-11-18T00:16:25.326Z,0.00
2017-11-18T00:17:25.322Z,0.00
2017-11-18T00:18:25.323Z,0.00
2017-11-18T00:19:25.313Z,0.00
2017-11-18T00:20:25.302Z,0.00
2017-11-18T00:21:25.296Z,0.00
2017-11-18T00:22:25.287Z,0.00
2017-11-18T00:23:25.283Z,0.00
2017-11-18T00:24:25.286Z,0.00
2017-11-18T00:25:25.270Z,0.00
2017-11-18T00:26:25.271Z,0.00
2017-11-18T00:27:25.264Z,0.00
2017-11-18T00:28:25.261Z,0.00
2017-11-18T00:29:25.241Z,0.00
2017-11-18T00:30:25.242Z,0.00
2017-11-18T00:31:25.243Z,0.00
2017-11-18T00:32:25.242Z,0.00
2017-11-18T00:33:25.213Z,0.00
2017-11-18T00:34:25.208Z,0.00
2017-11-18T00:35:25.204Z,0.00
2017-11-18T00:36:25.202Z,0.00
2017-11-18T00:37:25.195Z,0.00
2017-11-18T00:38:25.185Z,0.00
2017-11-18T00:39:25.177Z,0.00
2017-11-18T00:40:25.170Z,0.00
2017-11-18T00:41:25.162Z,0.00
2017-11-18T00:42:25.155Z,0.00
2017-11-18T00:43:25.149Z,0.00
2017-11-18T00:44:25.143Z,0.00
2017-11-18T00:45:25.138Z,0.00
2017-11-18T00:46:25.129Z,0.00
2017-11-18T00:47:25.146Z,0.00
2017-11-18T00:48:25.115Z,0.00
2017-11-18T00:49:25.119Z,0.00
2017-11-18T00:50:25.102Z,0.00
2017-11-18T00:51:25.108Z,0.00
2017-11-18T00:52:25.091Z,0.00
2017-11-18T00:53:25.100Z,0.00
2017-11-18T00:54:25.076Z,0.00
2017-11-18T00:55:25.074Z,0.00
2017-11-18T00:56:25.064Z,0.00
2017-11-18T00:57:25.058Z,0.00
2017-11-18T00:58:25.050Z,0.00
2017-11-18T00:59:25.045Z,0.00
2017-11-18T01:00:25.042Z,0.00
2017-11-18T01:01:25.033Z,0.00
2017-11-18T01:02:25.023Z,0.00
2017-11-18T01:03:25.030Z,0.00
2017-11-18T01:04:25.012Z,0.00
2017-11-18T01:05:25.009Z,0.00
2017-11-18T01:06:24.997Z,0.00
2017-11-18T01:07:24.992Z,0.00
2017-11-18T01:08:24.987Z,0.00
2017-11-18T01:09:24.984Z,0.00
2017-11-18T01:10:24.973Z,0.00
2017-11-18T01:11:24.967Z,0.00
2017-11-18T01:12:24.958Z,0.00
2017-11-18T01:13:24.955Z,0.00
2017-11-18T01:14:24.947Z,0.00
2017-11-18T01:15:24.942Z,0.00
2017-11-18T01:16:24.935Z,0.00
2017-11-18T01:17:24.920Z,0.00
2017-11-18T01:18:24.923Z,0.00
2017-11-18T01:19:24.923Z,0.00
2017-11-18T01:20:25.179Z,0.00
2017-11-18T01:21:24.902Z,0.00
2017-11-18T01:22:24.890Z,0.00
2017-11-18T01:23:24.887Z,0.00
2017-11-18T01:24:24.880Z,0.00
2017-11-18T01:25:24.878Z,0.00
2017-11-18T01:26:24.875Z,0.00
2017-11-18T01:27:24.851Z,0.00
2017-11-18T01:28:24.871Z,0.00
2017-11-18T01:29:24.846Z,0.00
2017-11-18T01:30:24.833Z,0.00
2017-11-18T01:31:24.849Z,0.00
2017-11-18T01:32:24.861Z,0.00
2017-11-18T01:33:24.825Z,0.00
2017-11-18T01:34:24.808Z,0.00
2017-11-18T01:35:25.625Z,0.00
2017-11-18T01:36:24.797Z,0.00
2017-11-18T01:37:24.799Z,0.00
2017-11-18T01:38:24.783Z,0.00
2017-11-18T01:39:24.787Z,0.00
2017-11-18T01:40:24.782Z,0.00
2017-11-18T01:41:24.763Z,0.00
2017-11-18T01:42:24.768Z,0.00
2017-11-18T01:43:24.763Z,0.00
2017-11-18T01:44:24.756Z,0.00
2017-11-18T01:45:24.751Z,0.00
2017-11-18T01:46:24.742Z,0.00
2017-11-18T01:47:24.722Z,0.00
2017-11-18T01:48:24.757Z,0.00
2017-11-18T01:49:24.723Z,0.00
2017-11-18T01:50:24.705Z,0.00
2017-11-18T01:51:24.709Z,0.00
2017-11-18T01:52:24.704Z,0.00
2017-11-18T01:53:24.698Z,0.00
2017-11-18T01:54:24.690Z,0.00
2017-11-18T01:55:24.684Z,0.00
2017-11-18T01:56:24.676Z,0.00
2017-11-18T01:57:24.673Z,0.00
2017-11-18T01:58:24.666Z,0.00
2017-11-18T01:59:24.657Z,0.00
2017-11-18T02:00:24.648Z,0.00
2017-11-18T02:01:24.646Z,0.00
2017-11-18T02:02:24.638Z,0.00
2017-11-18T02:03:24.636Z,0.00
2017-11-18T02:04:24.625Z,0.00
2017-11-18T02:05:24.618Z,0.00
2017-11-18T02:06:24.611Z,0.00
2017-11-18T02:07:24.608Z,0.00
2017-11-18T02:08:24.600Z,0.00
2017-11-18T02:09:24.586Z,0.00
2017-11-18T02:10:24.589Z,0.00
2017-11-18T02:11:24.588Z,0.00
2017-11-18T02:12:24.577Z,0.00
2017-11-18T02:13:24.570Z,0.00
2017-11-18T02:14:24.565Z,0.00
2017-11-18T02:15:24.557Z,0.00
2017-11-18T02:16:24.551Z,0.00
2017-11-18T02:17:24.564Z,0.00
2017-11-18T02:18:24.534Z,0.00
2017-11-18T02:19:24.538Z,0.00
2017-11-18T02:20:24.525Z,0.00
2017-11-18T02:21:24.549Z,0.00
2017-11-18T02:22:24.513Z,0.00
2017-11-18T02:23:24.503Z,0.00
2017-11-18T02:24:24.498Z,0.00
2017-11-18T02:25:24.495Z,0.00
2017-11-18T02:26:24.486Z,0.00
2017-11-18T02:27:24.499Z,0.00
2017-11-18T02:28:24.487Z,0.00
2017-11-18T02:29:24.493Z,0.00
2017-11-18T02:30:24.461Z,0.00
2017-11-18T02:31:24.452Z,0.00
2017-11-18T02:32:24.447Z,0.00
2017-11-18T02:33:24.450Z,0.00
2017-11-18T02:34:24.443Z,0.00
2017-11-18T02:35:24.443Z,0.00
2017-11-18T02:36:24.432Z,0.00
2017-11-18T02:37:24.415Z,0.00
2017-11-18T02:38:24.440Z,0.00
2017-11-18T02:39:24.420Z,0.00
2017-11-18T02:40:24.414Z,0.00
2017-11-18T02:41:24.413Z,0.00
2017-11-18T02:42:24.395Z,0.00
2017-11-18T02:43:24.381Z,0.00
2017-11-18T02:44:24.373Z,0.00
2017-11-18T02:45:24.381Z,0.00
2017-11-18T02:46:24.379Z,0.00
2017-11-18T02:47:24.354Z,0.00
2017-11-18T02:48:24.358Z,0.00
2017-11-18T02:49:24.343Z,0.00
2017-11-18T02:50:24.359Z,0.00
2017-11-18T02:51:24.327Z,0.00
2017-11-18T02:52:24.326Z,0.00
2017-11-18T02:53:24.313Z,0.00
2017-11-18T02:54:24.317Z,0.00
2017-11-18T02:55:24.313Z,0.00
2017-11-18T02:56:24.298Z,0.00
2017-11-18T02:57:24.296Z,0.00
2017-11-18T02:58:24.312Z,0.00
2017-11-18T02:59:24.280Z,0.00
2017-11-18T03:00:24.268Z,0.00
2017-11-18T03:01:24.271Z,0.00
2017-11-18T03:02:24.262Z,0.00
2017-11-18T03:03:24.252Z,0.00
2017-11-18T03:04:24.258Z,0.00
2017-11-18T03:05:24.243Z,0.00
2017-11-18T03:06:24.231Z,0.00
2017-11-18T03:07:24.265Z,0.00
2017-11-18T03:08:24.252Z,0.00
2017-11-18T03:09:24.216Z,0.00
2017-11-18T03:10:24.216Z,0.00
2017-11-18T03:11:24.200Z,0.00
2017-11-18T03:12:24.203Z,0.00
2017-11-18T03:13:24.192Z,0.00
2017-11-18T03:14:24.192Z,0.00
2017-11-18T03:15:24.187Z,0.00
2017-11-18T03:16:24.169Z,0.00
2017-11-18T03:17:24.164Z,0.00
2017-11-18T03:18:24.173Z,0.00
2017-11-18T03:19:24.149Z,0.00
2017-11-18T03:20:24.145Z,0.00
2017-11-18T03:21:24.139Z,0.00
2017-11-18T03:22:24.149Z,0.00
2017-11-18T03:23:24.163Z,0.00
2017-11-18T03:24:24.194Z,0.00
2017-11-18T03:25:24.113Z,0.00
2017-11-18T03:26:24.108Z,0.00
2017-11-18T03:27:24.105Z,0.00
2017-11-18T03:28:24.111Z,0.00
2017-11-18T03:29:24.083Z,0.00
2017-11-18T03:30:24.089Z,0.00
2017-11-18T03:31:24.077Z,0.00
2017-11-18T03:32:24.077Z,0.00
2017-11-18T03:33:24.087Z,0.00
2017-11-18T03:34:24.051Z,0.00
2017-11-18T03:35:24.051Z,0.00
2017-11-18T03:36:24.055Z,0.00
2017-11-18T03:37:24.038Z,0.00
2017-11-18T03:38:24.029Z,0.00
2017-11-18T03:39:24.025Z,0.00
2017-11-18T03:40:24.040Z,0.00
2017-11-18T03:41:24.019Z,0.00
2017-11-18T03:42:24.004Z,0.00
2017-11-18T03:43:23.999Z,0.00
2017-11-18T03:44:23.993Z,0.00
2017-11-18T03:45:23.985Z,0.00
2017-11-18T03:46:24.021Z,0.00
2017-11-18T03:47:23.973Z,0.00
2017-11-18T03:48:23.972Z,0.00
2017-11-18T03:49:24.008Z,0.00
2017-11-18T03:50:23.951Z,0.00
2017-11-18T03:51:23.956Z,0.00
2017-11-18T03:52:23.953Z,0.00
2017-11-18T03:53:23.928Z,0.00
2017-11-18T03:54:23.920Z,0.00
2017-11-18T03:55:23.910Z,0.00
2017-11-18T03:56:23.914Z,0.00
2017-11-18T03:57:23.905Z,0.00
2017-11-18T03:58:23.911Z,0.00
2017-11-18T03:59:23.893Z,0.00
2017-11-18T04:00:23.881Z,0.00
2017-11-18T04:01:23.892Z,0.00
2017-11-18T04:02:23.864Z,0.00
2017-11-18T04:03:23.862Z,0.00
2017-11-18T04:04:23.861Z,0.00
2017-11-18T04:05:23.851Z,0.00
2017-11-18T04:06:23.846Z,0.00
2017-11-18T04:07:23.832Z,0.00
2017-11-18T04:08:23.830Z,0.00
2017-11-18T04:09:23.826Z,0.00
2017-11-18T04:10:23.822Z,0.00
2017-11-18T04:11:23.803Z,0.00
2017-11-18T04:12:23.815Z,0.00
2017-11-18T04:13:23.792Z,0.00
2017-11-18T04:14:23.792Z,0.00
2017-11-18T04:15:23.780Z,0.00
2017-11-18T04:16:23.779Z,0.00
2017-11-18T04:17:23.769Z,0.00
2017-11-18T04:18:23.757Z,0.00
2017-11-18T04:19:23.764Z,0.00
2017-11-18T04:20:23.750Z,0.00
2017-11-18T04:21:23.771Z,0.00
2017-11-18T04:22:23.738Z,0.00
2017-11-18T04:23:23.721Z,0.00
2017-11-18T04:24:23.725Z,0.00
2017-11-18T04:25:23.713Z,0.00
2017-11-18T04:26:23.735Z,0.00
2017-11-18T04:27:23.700Z,0.00
2017-11-18T04:28:23.694Z,0.00
2017-11-18T04:29:23.687Z,0.00
2017-11-18T04:30:23.671Z,0.00
2017-11-18T04:31:23.683Z,0.00
2017-11-18T04:32:23.670Z,0.00
2017-11-18T04:33:23.648Z,0.00
2017-11-18T04:34:23.655Z,0.00
2017-11-18T04:35:23.643Z,0.00
2017-11-18T04:36:23.630Z,0.00
2017-11-18T04:37:23.621Z,0.00
2017-11-18T04:38:23.622Z,0.00
2017-11-18T04:39:23.617Z,0.00
2017-11-18T04:40:23.601Z,0.00
2017-11-18T04:41:23.601Z,0.00
2017-11-18T04:42:23.588Z,0.00
2017-11-18T04:43:23.587Z,0.00
2017-11-18T04:44:23.576Z,0.00
2017-11-18T04:45:23.566Z,0.00
2017-11-18T04:46:23.558Z,0.00
2017-11-18T04:47:23.555Z,0.00
2017-11-18T04:48:23.583Z,0.00
2017-11-18T04:49:23.542Z,0.00
2017-11-18T04:50:23.539Z,0.00
2017-11-18T04:51:23.528Z,0.00
2017-11-18T04:52:23.520Z,0.00
2017-11-18T04:53:23.514Z,0.00
2017-11-18T04:54:23.505Z,0.00
2017-11-18T04:55:23.498Z,0.00
2017-11-18T04:56:23.498Z,0.00
2017-11-18T04:57:23.489Z,0.00
2017-11-18T04:58:23.485Z,0.00
2017-11-18T04:59:23.479Z,0.00
2017-11-18T05:00:23.457Z,0.00
2017-11-18T05:01:23.470Z,0.00
2017-11-18T05:02:23.452Z,0.00
2017-11-18T05:03:23.432Z,0.00
2017-11-18T05:04:23.447Z,0.00
2017-11-18T05:05:23.433Z,0.00
2017-11-18T05:06:23.414Z,0.00
2017-11-18T05:07:23.406Z,0.00
2017-11-18T05:08:23.404Z,0.00
2017-11-18T05:09:23.390Z,0.00
2017-11-18T05:10:23.392Z,0.00
2017-11-18T05:11:23.376Z,0.00
2017-11-18T05:12:23.376Z,0.00
2017-11-18T05:13:23.361Z,0.00
2017-11-18T05:14:23.352Z,0.00
2017-11-18T05:15:23.346Z,0.00
2017-11-18T05:16:23.340Z,0.00
2017-11-18T05:17:23.324Z,0.00
2017-11-18T05:18:23.322Z,0.00
2017-11-18T05:19:23.320Z,0.00
2017-11-18T05:20:23.310Z,0.00
2017-11-18T05:21:23.308Z,0.00
2017-11-18T05:22:23.320Z,0.00
2017-11-18T05:23:23.283Z,0.00
2017-11-18T05:24:23.284Z,0.00
2017-11-18T05:25:24.118Z,0.00
2017-11-18T05:26:23.268Z,0.00
2017-11-18T05:27:23.257Z,0.00
2017-11-18T05:28:23.254Z,0.00
2017-11-18T05:29:23.243Z,0.00
2017-11-18T05:30:23.236Z,0.00
2017-11-18T05:31:23.230Z,0.00
2017-11-18T05:32:23.228Z,0.00
2017-11-18T05:33:23.225Z,0.00
2017-11-18T05:34:23.210Z,0.00
2017-11-18T05:35:23.200Z,0.00
2017-11-18T05:36:23.202Z,0.00
2017-11-18T05:37:23.201Z,0.00
2017-11-18T05:38:23.183Z,0.00
2017-11-18T05:39:23.173Z,0.00
2017-11-18T05:40:23.165Z,0.00
2017-11-18T05:41:23.170Z,0.00
2017-11-18T05:42:23.187Z,0.00
2017-11-18T05:43:23.160Z,0.00
2017-11-18T05:44:23.137Z,0.00
2017-11-18T05:45:23.135Z,0.00
2017-11-18T05:46:23.122Z,0.00
2017-11-18T05:47:23.166Z,0.00
2017-11-18T05:48:23.110Z,0.00
2017-11-18T05:49:23.103Z,0.00
2017-11-18T05:50:23.104Z,0.00
2017-11-18T05:51:23.094Z,0.00
2017-11-18T05:52:23.096Z,0.00
2017-11-18T05:53:23.091Z,0.00
2017-11-18T05:54:23.068Z,0.00
2017-11-18T05:55:23.063Z,0.00
2017-11-18T05:56:23.066Z,0.00
2017-11-18T05:57:23.050Z,0.00
2017-11-18T05:58:23.048Z,0.00
2017-11-18T05:59:23.042Z,0.00
2017-11-18T06:00:23.029Z,4.00
2017-11-18T06:01:23.021Z,4.00
2017-11-18T06:02:23.011Z,0.00
2017-11-18T06:03:23.010Z,0.00
2017-11-18T06:04:23.002Z,4.00
2017-11-18T06:05:23.000Z,8.00
2017-11-18T06:06:22.995Z,4.00
2017-11-18T06:07:22.992Z,4.00
2017-11-18T06:08:22.989Z,8.00
2017-11-18T06:09:22.984Z,8.00
2017-11-18T06:10:22.996Z,12.00
2017-11-18T06:11:22.957Z,12.00
2017-11-18T06:12:22.953Z,16.00
2017-11-18T06:13:22.943Z,16.00
2017-11-18T06:14:22.961Z,16.00
2017-11-18T06:15:22.934Z,20.00
2017-11-18T06:16:22.925Z,24.00
2017-11-18T06:17:22.920Z,28.00
2017-11-18T06:18:22.909Z,36.00
2017-11-18T06:19:22.904Z,44.00
2017-11-18T06:20:22.912Z,40.00
2017-11-18T06:21:22.892Z,48.00
2017-11-18T06:22:22.891Z,52.00
2017-11-18T06:23:22.888Z,60.00
2017-11-18T06:24:22.876Z,68.00
2017-11-18T06:25:22.864Z,72.00
2017-11-18T06:26:22.862Z,76.00
2017-11-18T06:27:22.855Z,84.00
2017-11-18T06:28:22.843Z,92.00
2017-11-18T06:29:22.843Z,92.00
2017-11-18T06:30:22.830Z,100.00
2017-11-18T06:31:22.832Z,116.00
2017-11-18T06:32:22.821Z,120.00
2017-11-18T06:33:22.823Z,128.00
2017-11-18T06:34:22.810Z,128.00
2017-11-18T06:35:22.797Z,132.00
2017-11-18T06:36:22.799Z,148.00
2017-11-18T06:37:22.803Z,168.00
2017-11-18T06:38:22.781Z,192.00
2017-11-18T06:39:22.780Z,212.00
2017-11-18T06:40:22.792Z,224.00
2017-11-18T06:41:22.772Z,236.00
2017-11-18T06:42:22.757Z,256.00
2017-11-18T06:43:22.750Z,260.00
2017-11-18T06:44:22.747Z,276.00
2017-11-18T06:45:22.762Z,280.00
2017-11-18T06:46:22.741Z,284.00
2017-11-18T06:47:22.721Z,292.00
2017-11-18T06:48:22.725Z,304.00
2017-11-18T06:49:22.719Z,316.00
2017-11-18T06:50:22.714Z,332.00
2017-11-18T06:51:22.714Z,364.00
2017-11-18T06:52:22.710Z,396.00
2017-11-18T06:53:22.717Z,424.00
2017-11-18T06:54:22.679Z,456.00
2017-11-18T06:55:22.675Z,456.00
2017-11-18T06:56:22.674Z,464.00
2017-11-18T06:57:22.658Z,472.00
2017-11-18T06:58:22.661Z,500.00
2017-11-18T06:59:22.651Z,524.00
2017-11-18T07:00:22.658Z,544.00
2017-11-18T07:01:22.648Z,564.00
2017-11-18T07:02:22.642Z,592.00
2017-11-18T07:03:22.637Z,632.00
2017-11-18T07:04:22.628Z,652.00
2017-11-18T07:05:22.625Z,660.00
2017-11-18T07:06:22.616Z,684.00
2017-11-18T07:07:22.606Z,728.00
2017-11-18T07:08:22.608Z,772.00
2017-11-18T07:09:22.592Z,816.00
2017-11-18T07:10:22.602Z,832.00
2017-11-18T07:11:22.584Z,872.00
2017-11-18T07:12:22.575Z,896.00
2017-11-18T07:13:22.575Z,908.00
2017-11-18T07:14:22.578Z,912.00
2017-11-18T07:15:22.554Z,956.00
2017-11-18T07:16:22.551Z,1084.00
2017-11-18T07:17:22.546Z,1112.00
2017-11-18T07:18:22.541Z,1068.00
2017-11-18T07:19:22.527Z,1080.00
2017-11-18T07:20:22.525Z,1100.00
2017-11-18T07:21:22.520Z,1128.00
2017-11-18T07:22:22.509Z,1132.00
2017-11-18T07:23:22.502Z,1144.00
2017-11-18T07:24:22.496Z,1176.00
2017-11-18T07:25:22.496Z,1208.00
2017-11-18T07:26:22.483Z,1216.00
2017-11-18T07:27:22.481Z,1252.00
2017-11-18T07:28:22.524Z,1320.00
2017-11-18T07:29:22.473Z,1316.00
2017-11-18T07:30:22.490Z,1324.00
2017-11-18T07:31:22.454Z,1336.00
2017-11-18T07:32:22.462Z,1364.00
2017-11-18T07:33:22.439Z,1380.00
2017-11-18T07:34:22.444Z,1380.00
2017-11-18T07:35:22.431Z,1552.00
2017-11-18T07:36:22.449Z,1748.00
2017-11-18T07:37:22.427Z,1736.00
2017-11-18T07:38:22.416Z,1752.00
2017-11-18T07:39:22.422Z,1820.00
2017-11-18T07:40:22.409Z,1792.00
2017-11-18T07:41:22.403Z,1816.00
2017-11-18T07:42:22.390Z,1904.00
2017-11-18T07:43:22.431Z,1992.00
2017-11-18T07:44:22.385Z,1948.00
2017-11-18T07:45:22.371Z,1924.00
2017-11-18T07:46:22.376Z,1932.00
2017-11-18T07:47:22.364Z,1984.00
2017-11-18T07:48:22.356Z,1976.00
2017-11-18T07:49:22.353Z,1956.00
2017-11-18T07:50:22.351Z,1928.00
2017-11-18T07:51:22.344Z,1904.00
2017-11-18T07:52:22.348Z,1856.00
2017-11-18T07:53:22.326Z,1748.00
2017-11-18T07:54:22.328Z,1776.00
2017-11-18T07:55:22.316Z,1896.00
2017-11-18T07:56:22.318Z,2132.00
2017-11-18T07:57:22.304Z,2304.00
2017-11-18T07:58:22.300Z,2412.00
2017-11-18T07:59:22.299Z,2484.00
2017-11-18T08:00:22.302Z,2464.00
2017-11-18T08:01:22.281Z,2400.00
2017-11-18T08:02:22.292Z,2384.00
2017-11-18T08:03:22.275Z,2392.00
2017-11-18T08:04:22.269Z,2476.00
2017-11-18T08:05:22.263Z,2596.00
2017-11-18T08:06:22.262Z,2520.00
2017-11-18T08:07:22.254Z,2436.00
2017-11-18T08:08:22.246Z,2412.00
2017-11-18T08:09:22.247Z,2396.00
2017-11-18T08:10:22.242Z,2332.00
2017-11-18T08:11:22.235Z,2328.00
2017-11-18T08:12:22.222Z,2224.00
2017-11-18T08:13:22.223Z,2276.00
2017-11-18T08:14:22.212Z,2492.00
2017-11-18T08:15:22.208Z,2572.00
2017-11-18T08:16:22.205Z,2640.00
2017-11-18T08:17:22.220Z,2564.00
2017-11-18T08:18:22.196Z,2576.00
2017-11-18T08:19:22.193Z,2600.00
2017-11-18T08:20:22.213Z,2516.00
2017-11-18T08:21:22.188Z,2472.00
2017-11-18T08:22:22.174Z,2608.00
2017-11-18T08:23:22.178Z,2704.00
2017-11-18T08:24:22.164Z,2696.00
2017-11-18T08:25:22.153Z,2708.00
2017-11-18T08:26:22.156Z,2940.00
2017-11-18T08:27:22.149Z,2920.00
2017-11-18T08:28:22.143Z,2968.00
2017-11-18T08:29:22.130Z,3108.00
2017-11-18T08:30:22.129Z,2984.00
2017-11-18T08:31:22.135Z,2948.00
2017-11-18T08:32:22.120Z,3136.00
2017-11-18T08:33:22.146Z,3084.00
2017-11-18T08:34:22.109Z,2992.00
2017-11-18T08:35:22.116Z,3052.00
2017-11-18T08:36:22.100Z,3164.00
2017-11-18T08:37:22.090Z,3112.00
2017-11-18T08:38:22.091Z,3068.00
2017-11-18T08:39:22.105Z,3020.00
2017-11-18T08:40:22.135Z,2900.00
2017-11-18T08:41:22.076Z,2728.00
2017-11-18T08:42:22.076Z,2608.00
2017-11-18T08:43:22.065Z,2664.00
2017-11-18T08:44:22.064Z,2792.00
2017-11-18T08:45:22.053Z,2780.00
2017-11-18T08:46:22.055Z,2700.00
2017-11-18T08:47:22.044Z,2644.00
2017-11-18T08:48:22.036Z,2608.00
2017-11-18T08:49:22.028Z,2592.00
2017-11-18T08:50:22.026Z,2528.00
2017-11-18T08:51:22.019Z,2428.00
2017-11-18T08:52:22.024Z,2304.00
2017-11-18T08:53:22.013Z,2200.00
2017-11-18T08:54:22.023Z,2136.00
2017-11-18T08:55:22.002Z,2168.00
2017-11-18T08:56:22.004Z,2268.00
2017-11-18T08:57:21.990Z,2184.00
2017-11-18T08:58:22.015Z,2136.00
2017-11-18T08:59:21.981Z,2100.00
2017-11-18T09:00:22.011Z,2092.00
2017-11-18T09:01:21.972Z,2124.00
2017-11-18T09:02:21.965Z,2192.00
2017-11-18T09:03:21.958Z,2268.00
2017-11-18T09:04:21.954Z,2344.00
2017-11-18T09:05:21.956Z,2552.00
2017-11-18T09:06:21.954Z,3012.00
2017-11-18T09:07:21.957Z,3696.00
2017-11-18T09:08:21.982Z,3996.00
2017-11-18T09:09:21.934Z,4024.00
2017-11-18T09:10:21.923Z,4028.00
2017-11-18T09:11:21.952Z,4100.00
2017-11-18T09:12:21.914Z,4264.00
2017-11-18T09:13:21.917Z,4168.00
2017-11-18T09:14:21.904Z,4072.00
2017-11-18T09:15:21.911Z,4132.00
2017-11-18T09:16:21.903Z,3916.00
2017-11-18T09:17:21.888Z,3824.00
2017-11-18T09:18:21.935Z,3756.00
2017-11-18T09:19:21.877Z,3764.00
2017-11-18T09:20:21.881Z,3804.00
2017-11-18T09:21:21.882Z,3988.00
2017-11-18T09:22:21.869Z,4300.00
2017-11-18T09:23:21.857Z,4444.00
2017-11-18T09:24:21.856Z,4568.00
2017-11-18T09:25:21.850Z,4536.00
2017-11-18T09:26:21.841Z,4360.00
2017-11-18T09:27:21.870Z,4228.00
2017-11-18T09:28:22.066Z,4060.00
2017-11-18T09:29:21.825Z,3992.00
2017-11-18T09:30:22.174Z,4132.00
2017-11-18T09:31:21.826Z,4088.00
2017-11-18T09:32:21.819Z,4044.00
2017-11-18T09:33:22.191Z,4280.00
2017-11-18T09:34:21.804Z,4468.00
2017-11-18T09:35:21.814Z,4440.00
2017-11-18T09:36:21.798Z,4404.00
2017-11-18T09:37:21.787Z,4468.00
2017-11-18T09:38:21.798Z,4364.00
2017-11-18T09:39:21.897Z,4380.00
2017-11-18T09:40:21.956Z,4632.00
2017-11-18T09:41:21.775Z,4412.00
2017-11-18T09:42:21.898Z,4300.00
2017-11-18T09:43:22.073Z,4192.00
2017-11-18T09:44:21.893Z,4520.00
2017-11-18T09:45:21.813Z,4624.00
2017-11-18T09:46:21.763Z,4652.00
2017-11-18T09:47:21.745Z,4144.00
2017-11-18T09:48:21.737Z,4148.00
2017-11-18T09:49:22.104Z,4748.00
2017-11-18T09:50:21.732Z,4636.00
2017-11-18T09:51:21.957Z,4848.00
2017-11-18T09:52:21.727Z,4580.00
2017-11-18T09:53:21.716Z,3952.00
2017-11-18T09:54:21.718Z,3216.00
2017-11-18T09:55:21.717Z,2716.00
2017-11-18T09:56:21.710Z,2624.00
2017-11-18T09:57:21.708Z,3000.00
2017-11-18T09:58:21.713Z,3092.00
2017-11-18T09:59:21.743Z,3068.00
2017-11-18T10:00:21.733Z,2584.00
2017-11-18T10:01:21.681Z,3224.00
2017-11-18T10:02:21.712Z,3464.00
2017-11-18T10:03:21.673Z,3748.00
2017-11-18T10:04:21.668Z,4176.00
2017-11-18T10:05:21.663Z,5084.00
2017-11-18T10:06:21.675Z,5168.00
2017-11-18T10:07:21.655Z,5556.00
2017-11-18T10:08:21.662Z,5376.00
2017-11-18T10:09:21.655Z,5184.00
2017-11-18T10:10:21.633Z,5384.00
2017-11-18T10:11:21.670Z,5528.00
2017-11-18T10:12:21.674Z,5368.00
2017-11-18T10:13:21.643Z,5288.00
2017-11-18T10:14:21.674Z,4976.00
2017-11-18T10:15:21.615Z,4344.00
2017-11-18T10:16:21.609Z,4420.00
2017-11-18T10:17:21.815Z,4796.00
2017-11-18T10:18:21.599Z,4732.00
2017-11-18T10:19:21.606Z,3768.00
2017-11-18T10:20:21.603Z,3180.00
2017-11-18T10:21:21.596Z,3628.00
2017-11-18T10:22:21.587Z,4216.00
2017-11-18T10:23:21.582Z,4724.00
2017-11-18T10:24:21.594Z,4948.00
2017-11-18T10:25:21.687Z,4824.00
2017-11-18T10:26:21.592Z,4140.00
2017-11-18T10:27:21.556Z,4196.00
2017-11-18T10:28:21.600Z,4292.00
2017-11-18T10:29:21.561Z,4424.00
2017-11-18T10:30:21.559Z,4052.00
2017-11-18T10:31:21.569Z,3840.00
2017-11-18T10:32:21.539Z,3760.00
2017-11-18T10:33:21.554Z,3756.00
2017-11-18T10:34:21.545Z,4128.00
2017-11-18T10:35:21.528Z,4148.00
2017-11-18T10:36:21.757Z,4300.00
2017-11-18T10:37:21.546Z,4252.00
2017-11-18T10:38:21.513Z,4124.00
2017-11-18T10:39:21.506Z,4356.00
2017-11-18T10:40:21.586Z,4944.00
2017-11-18T10:41:21.559Z,5300.00
2017-11-18T10:42:21.499Z,5252.00
2017-11-18T10:43:21.495Z,4420.00
2017-11-18T10:44:21.487Z,4408.00
2017-11-18T10:45:21.642Z,4580.00
2017-11-18T10:46:21.503Z,4540.00
2017-11-18T10:47:21.492Z,4528.00
2017-11-18T10:48:21.475Z,4856.00
2017-11-18T10:49:21.476Z,4580.00
2017-11-18T10:50:21.456Z,4344.00
2017-11-18T10:51:21.474Z,4976.00
2017-11-18T10:52:21.472Z,5152.00
2017-11-18T10:53:21.450Z,5076.00
2017-11-18T10:54:21.435Z,4764.00
2017-11-18T10:55:21.428Z,4796.00
2017-11-18T10:56:21.428Z,4648.00
2017-11-18T10:57:21.694Z,4704.00
2017-11-18T10:58:21.765Z,4848.00
2017-11-18T10:59:21.436Z,5016.00
2017-11-18T11:00:21.406Z,5108.00
2017-11-18T11:01:21.429Z,5152.00
2017-11-18T11:02:21.406Z,5220.00
2017-11-18T11:03:21.426Z,5224.00
2017-11-18T11:04:21.721Z,5192.00
2017-11-18T11:05:21.384Z,5488.00
2017-11-18T11:06:21.423Z,5600.00
2017-11-18T11:07:21.382Z,5568.00
2017-11-18T11:08:21.371Z,5464.00
2017-11-18T11:09:21.391Z,5220.00
2017-11-18T11:10:21.377Z,4772.00
2017-11-18T11:11:21.362Z,4184.00
2017-11-18T11:12:21.350Z,3836.00
2017-11-18T11:13:21.363Z,3648.00
2017-11-18T11:14:21.343Z,3356.00
2017-11-18T11:15:21.346Z,3380.00
2017-11-18T11:16:21.343Z,3568.00
2017-11-18T11:17:21.332Z,3572.00
2017-11-18T11:18:42.331Z,3560.00
2017-11-18T11:19:21.743Z,3812.00
2017-11-18T11:20:21.315Z,3600.00
2017-11-18T11:21:21.304Z,3208.00
2017-11-18T11:22:21.310Z,3168.00
2017-11-18T11:23:21.302Z,3152.00
2017-11-18T11:24:21.574Z,3180.00
2017-11-18T11:25:21.289Z,2944.00
2017-11-18T11:26:21.294Z,2632.00
2017-11-18T11:27:21.275Z,2456.00
2017-11-18T11:28:21.299Z,2244.00
2017-11-18T11:29:21.397Z,2248.00
2017-11-18T11:30:21.264Z,2500.00
2017-11-18T11:31:21.266Z,2752.00
2017-11-18T11:32:21.253Z,2784.00
2017-11-18T11:33:21.252Z,2984.00
2017-11-18T11:34:21.246Z,2972.00
2017-11-18T11:35:21.255Z,2916.00
2017-11-18T11:36:21.233Z,2856.00
2017-11-18T11:37:21.228Z,2832.00
2017-11-18T11:38:21.224Z,3340.00
2017-11-18T11:39:21.217Z,4140.00
2017-11-18T11:40:21.214Z,4240.00
2017-11-18T11:41:21.210Z,3680.00
2017-11-18T11:42:21.203Z,3088.00
2017-11-18T11:43:21.218Z,2872.00
2017-11-18T11:44:21.222Z,3144.00
2017-11-18T11:45:21.189Z,3840.00
2017-11-18T11:46:21.177Z,4908.00
2017-11-18T11:47:21.194Z,5436.00
2017-11-18T11:48:21.170Z,5328.00
2017-11-18T11:49:21.194Z,5148.00
2017-11-18T11:50:21.158Z,5252.00
2017-11-18T11:51:21.167Z,5528.00
2017-11-18T11:52:21.156Z,5212.00
2017-11-18T11:53:21.175Z,4884.00
2017-11-18T11:54:21.136Z,4320.00
2017-11-18T11:55:21.133Z,4308.00
2017-11-18T11:56:21.135Z,4404.00
2017-11-18T11:57:21.130Z,4148.00
2017-11-18T11:58:21.112Z,3908.00
2017-11-18T11:59:21.107Z,3960.00
2017-11-18T12:00:21.105Z,4000.00
2017-11-18T12:01:21.104Z,3660.00
2017-11-18T12:02:21.108Z,3372.00
2017-11-18T12:03:21.097Z,3308.00
2017-11-18T12:04:21.092Z,2996.00
2017-11-18T12:05:21.113Z,2740.00
2017-11-18T12:06:21.088Z,2432.00
2017-11-18T12:07:21.074Z,2008.00
2017-11-18T12:08:21.100Z,2012.00
2017-11-18T12:09:21.065Z,2116.00
2017-11-18T12:10:21.066Z,1952.00
2017-11-18T12:11:21.056Z,2116.00
2017-11-18T12:12:21.056Z,2080.00
2017-11-18T12:13:21.046Z,2252.00
2017-11-18T12:14:21.056Z,2716.00
2017-11-18T12:15:21.036Z,3452.00
2017-11-18T12:16:21.029Z,3548.00
2017-11-18T12:17:21.033Z,3612.00
2017-11-18T12:18:21.022Z,3672.00
2017-11-18T12:19:21.017Z,3632.00
2017-11-18T12:20:21.062Z,2992.00
2017-11-18T12:21:21.028Z,3280.00
2017-11-18T12:22:21.003Z,3324.00
2017-11-18T12:23:21.002Z,3456.00
2017-11-18T12:24:20.997Z,3116.00
2017-11-18T12:25:21.037Z,2936.00
2017-11-18T12:26:20.985Z,2396.00
2017-11-18T12:27:20.990Z,1884.00
2017-11-18T12:28:21.000Z,1696.00
2017-11-18T12:29:20.989Z,1940.00
2017-11-18T12:30:20.979Z,1880.00
2017-11-18T12:31:20.959Z,1564.00
2017-11-18T12:32:20.989Z,1168.00
2017-11-18T12:33:20.949Z,1140.00
2017-11-18T12:34:20.954Z,1204.00
2017-11-18T12:35:21.032Z,1772.00
2017-11-18T12:36:20.950Z,2180.00
2017-11-18T12:37:20.945Z,2700.00
2017-11-18T12:38:20.925Z,3112.00
2017-11-18T12:39:20.921Z,3440.00
2017-11-18T12:40:20.929Z,3432.00
2017-11-18T12:41:20.915Z,3136.00
2017-11-18T12:42:20.923Z,2572.00